Terminal Aerodrome Forecast
Issued by NWS

Home | Current Version | Previous Version | Text Only | Print | Product List | Glossary On
Versions: 1 2 3 4 5 6 7 8 9 10 11 12 13 14 15 16 17 18 19 20 21 22 23
000
FTUS44 KBMX 152300
TAFTOI
TAF
KTOI 152338Z 1600/1624 VRB03KT P6SM VCTS SCT045CB BKN060
      TEMPO 1602/1604 3SM TSRA SCT025CB BKN035
     FM160500 00000KT P6SM SCT015 BKN100
     FM160800 00000KT 4SM BR SCT007 BKN015
      TEMPO 1609/1613 1SM BR OVC002
     FM161500 36004KT P6SM SCT020
     FM161800 29005KT P6SM VCTS SCT040CB OVC050=

USA.gov is the U.S. government's official web portal to all federal, state and local government web resources and services.